Time;durP1;ratioP1;P1;durP2;ratioP2;P2;SDS_P1;SDS_P2;PMS_P1;PMS_P2;Temp;Humidity;BMP_temperature;BMP_pressure;BME280_temperature;BME280_humidity;BME280_pressure;Samples;Min_cycle;Max_cycle;Signal;HPM_P1;HPM_P2
2022/01/10 00:01:49;;;;;;;17.95;6.15;;;2.50;99.90;;;;;;5047488;28;20060;-66
2022/01/10 00:04:15;;;;;;;21.35;4.95;;;2.40;99.90;;;;;;5045123;28;20048;-66
2022/01/10 00:06:40;;;;;;;20.85;5.80;;;2.40;99.90;;;;;;5049585;28;20040;-66
2022/01/10 00:09:06;;;;;;;20.83;5.63;;;2.40;99.90;;;;;;5045617;28;20063;-66
2022/01/10 00:11:32;;;;;;;22.88;5.32;;;2.50;99.90;;;;;;5045872;28;20036;-66
2022/01/10 00:13:57;;;;;;;15.90;5.18;;;2.40;99.90;;;;;;5041189;28;20044;-66
2022/01/10 00:16:24;;;;;;;16.75;6.35;;;2.50;99.90;;;;;;5047976;28;20634;-66
2022/01/10 00:18:49;;;;;;;22.27;6.13;;;2.40;99.90;;;;;;5029680;28;20120;-66
2022/01/10 00:21:15;;;;;;;19.35;6.80;;;2.30;99.90;;;;;;5036723;28;20116;-66
2022/01/10 00:23:41;;;;;;;24.50;5.28;;;2.40;99.90;;;;;;5030730;28;20069;-66
2022/01/10 00:26:08;;;;;;;27.58;6.20;;;2.30;99.90;;;;;;5037587;28;20101;-66
2022/01/10 00:28:33;;;;;;;16.27;6.13;;;2.30;99.90;;;;;;5029008;28;20837;-66
2022/01/10 00:30:59;;;;;;;21.63;5.07;;;2.30;99.90;;;;;;5036173;28;20065;-66
2022/01/10 00:33:25;;;;;;;20.95;4.88;;;2.30;99.90;;;;;;5031367;28;20044;-66
2022/01/10 00:35:50;;;;;;;15.48;4.75;;;2.40;99.90;;;;;;5036039;28;20412;-66
2022/01/10 00:38:16;;;;;;;25.40;6.20;;;2.40;99.90;;;;;;5035855;28;20034;-66
2022/01/10 00:40:42;;;;;;;22.50;5.40;;;2.40;99.90;;;;;;5035166;28;20037;-65
2022/01/10 00:43:17;;;;;;;20.70;5.90;;;2.40;99.90;;;;;;5059284;28;20042;-66
2022/01/10 00:45:42;;;;;;;21.85;6.57;;;2.40;99.90;;;;;;5032873;28;20048;-66
2022/01/10 00:48:08;;;;;;;26.85;6.68;;;2.30;99.90;;;;;;5027128;28;20041;-67
2022/01/10 00:50:33;;;;;;;14.70;4.43;;;2.30;99.90;;;;;;5037748;28;20132;-66
2022/01/10 00:53:01;;;;;;;18.70;4.90;;;2.30;99.90;;;;;;5036632;28;20493;-66
2022/01/10 00:55:29;;;;;;;18.77;5.53;;;2.40;99.90;;;;;;5038223;28;20045;-66
2022/01/10 00:57:55;;;;;;;21.48;4.80;;;2.30;99.90;;;;;;5033459;28;20431;-68
2022/01/10 01:00:21;;;;;;;18.40;4.22;;;2.40;99.90;;;;;;5035320;28;20188;-66
2022/01/10 01:02:46;;;;;;;15.52;4.35;;;2.40;99.90;;;;;;5034049;28;20068;-66
2022/01/10 01:05:19;;;;;;;24.77;5.20;;;2.40;99.90;;;;;;5033580;28;20037;-66
2022/01/10 01:07:45;;;;;;;22.00;5.43;;;2.40;99.90;;;;;;5034462;28;20037;-66
2022/01/10 01:10:56;;;;;;;19.77;4.78;;;2.40;99.90;;;;;;5033000;28;20047;-66
2022/01/10 01:13:40;;;;;;;21.02;5.07;;;2.40;99.90;;;;;;5032053;28;20122;-66
2022/01/10 01:26:48;;;;;;;19.23;4.82;;;2.40;99.90;;;;;;5027642;28;20057;-66
2022/01/10 01:29:17;;;;;;;22.83;5.22;;;2.40;99.90;;;;;;5055260;28;20041;-66
2022/01/10 01:31:43;;;;;;;20.92;4.65;;;2.40;99.90;;;;;;5024378;28;20522;-67
2022/01/10 01:34:10;;;;;;;29.08;5.03;;;2.40;99.90;;;;;;5021693;28;20037;-66
2022/01/10 01:36:37;;;;;;;14.55;4.72;;;2.40;99.90;;;;;;5023735;28;20053;-67
2022/01/10 01:39:11;;;;;;;17.02;4.43;;;2.40;99.90;;;;;;5025138;28;20040;-66
2022/01/10 01:41:41;;;;;;;22.73;5.20;;;2.40;99.90;;;;;;5024925;28;20037;-66
2022/01/10 01:44:06;;;;;;;29.13;5.88;;;2.40;99.90;;;;;;5024829;28;20041;-66
2022/01/10 01:46:36;;;;;;;21.08;4.80;;;2.40;99.90;;;;;;5024389;28;20516;-66
2022/01/10 01:49:03;;;;;;;18.67;4.75;;;2.40;99.90;;;;;;5025422;28;20493;-66
2022/01/10 01:51:28;;;;;;;19.77;5.22;;;2.40;99.90;;;;;;5024728;28;20087;-67
2022/01/10 01:53:54;;;;;;;17.67;4.70;;;2.40;99.90;;;;;;5025061;28;20445;-66
2022/01/10 01:56:20;;;;;;;16.70;4.07;;;2.40;99.90;;;;;;5024347;28;20041;-66
2022/01/10 01:58:46;;;;;;;16.13;4.18;;;2.30;99.90;;;;;;5020853;28;20060;-67
2022/01/10 02:01:16;;;;;;;20.75;4.57;;;2.40;99.90;;;;;;5023943;28;20081;-66
2022/01/10 02:03:43;;;;;;;16.48;4.50;;;2.30;99.90;;;;;;5021134;28;20046;-65
2022/01/10 02:06:09;;;;;;;26.65;4.40;;;2.40;99.90;;;;;;5025945;28;20041;-65
2022/01/10 02:08:36;;;;;;;23.33;4.57;;;2.30;99.90;;;;;;5020193;28;20390;-67
2022/01/10 02:11:05;;;;;;;22.20;5.00;;;2.40;99.90;;;;;;5025283;28;20080;-65
2022/01/10 02:13:31;;;;;;;24.48;5.32;;;2.30;99.90;;;;;;5020719;28;20038;-66
2022/01/10 02:16:02;;;;;;;19.20;4.75;;;2.30;99.90;;;;;;5022819;28;20045;-66
2022/01/10 02:18:28;;;;;;;24.88;4.82;;;2.30;99.90;;;;;;5021400;28;20068;-66
2022/01/10 02:20:57;;;;;;;30.83;6.85;;;2.30;99.90;;;;;;5021779;28;20410;-66
2022/01/10 02:23:23;;;;;;;16.38;5.13;;;2.30;99.90;;;;;;5023560;28;20077;-66
2022/01/10 02:25:49;;;;;;;25.35;5.05;;;2.30;99.90;;;;;;5026346;28;20092;-66
2022/01/10 02:28:15;;;;;;;21.45;6.25;;;2.30;99.90;;;;;;5025188;28;20167;-66
2022/01/10 02:30:41;;;;;;;25.83;5.50;;;2.40;99.90;;;;;;5024810;28;20117;-66
2022/01/10 02:33:07;;;;;;;15.13;4.13;;;2.40;99.90;;;;;;5024998;28;20159;-66
2022/01/10 02:35:40;;;;;;;19.08;5.40;;;2.40;99.90;;;;;;5025574;28;20091;-66
2022/01/10 02:38:06;;;;;;;25.58;6.13;;;2.40;99.90;;;;;;5025289;28;20065;-66
2022/01/10 02:40:33;;;;;;;18.63;5.45;;;2.40;99.90;;;;;;5021065;28;20085;-66
2022/01/10 02:43:00;;;;;;;21.42;5.85;;;2.40;99.90;;;;;;5021207;28;20049;-65
2022/01/10 02:45:26;;;;;;;25.95;6.03;;;2.40;99.90;;;;;;5021139;28;20056;-66
2022/01/10 02:47:53;;;;;;;26.77;5.32;;;2.30;99.90;;;;;;5024747;28;20068;-66
2022/01/10 02:50:19;;;;;;;33.72;5.97;;;2.30;99.90;;;;;;5021394;28;20033;-66
2022/01/10 02:52:45;;;;;;;28.08;5.55;;;2.20;99.90;;;;;;5026536;28;20401;-66
2022/01/10 02:55:12;;;;;;;20.92;5.88;;;2.20;99.90;;;;;;5023427;28;20036;-66
2022/01/10 02:57:38;;;;;;;19.48;5.47;;;2.20;99.90;;;;;;5026644;28;20040;-66
2022/01/10 03:00:09;;;;;;;22.23;6.50;;;2.20;99.90;;;;;;5022998;28;20037;-65
2022/01/10 03:02:36;;;;;;;16.52;4.68;;;2.20;99.90;;;;;;5023587;28;20042;-65
2022/01/10 03:05:02;;;;;;;23.00;5.25;;;2.20;99.90;;;;;;5023447;28;20084;-67
2022/01/10 03:07:28;;;;;;;20.80;7.10;;;2.30;99.90;;;;;;5025642;28;20041;-66
2022/01/10 03:09:54;;;;;;;14.77;5.25;;;2.30;99.90;;;;;;5022771;28;20034;-66
2022/01/10 03:12:20;;;;;;;29.63;6.15;;;2.30;99.90;;;;;;5016914;28;20113;-65
2022/01/10 03:14:46;;;;;;;16.15;4.70;;;2.30;99.90;;;;;;5021174;28;20140;-66
2022/01/10 03:17:13;;;;;;;24.15;5.15;;;2.30;99.90;;;;;;5024799;28;20090;-66
2022/01/10 03:19:40;;;;;;;33.83;6.78;;;2.30;99.90;;;;;;5022237;28;20076;-65
2022/01/10 03:22:07;;;;;;;21.42;6.95;;;2.30;99.90;;;;;;5026154;28;20045;-66
2022/01/10 03:24:33;;;;;;;15.13;4.63;;;2.20;99.90;;;;;;5023275;28;20086;-66
2022/01/10 03:26:59;;;;;;;13.85;4.80;;;2.20;99.90;;;;;;5026169;28;20712;-66
2022/01/10 03:29:25;;;;;;;24.75;5.20;;;2.30;99.90;;;;;;5022915;28;20046;-66
2022/01/10 03:31:51;;;;;;;19.60;5.15;;;2.30;99.90;;;;;;5032938;28;20092;-66
2022/01/10 03:34:16;;;;;;;15.75;5.15;;;2.30;99.90;;;;;;5022904;28;20036;-66
2022/01/10 03:36:43;;;;;;;17.42;4.72;;;2.30;99.90;;;;;;5025220;28;20099;-66
2022/01/10 03:39:10;;;;;;;22.25;5.30;;;2.30;99.90;;;;;;5022218;28;20045;-66
2022/01/10 03:41:36;;;;;;;15.48;5.07;;;2.30;99.90;;;;;;5026347;28;20720;-66
2022/01/10 03:44:03;;;;;;;12.35;4.60;;;2.30;99.90;;;;;;5025142;28;20143;-66
2022/01/10 03:46:32;;;;;;;21.27;6.00;;;2.30;99.90;;;;;;5022211;28;20045;-66
2022/01/10 03:48:58;;;;;;;20.42;5.60;;;2.30;99.90;;;;;;5020706;28;20171;-67
2022/01/10 03:51:24;;;;;;;22.38;5.25;;;2.30;99.90;;;;;;5024865;28;20037;-65
2022/01/10 03:53:49;;;;;;;22.75;4.97;;;2.30;99.90;;;;;;5023840;28;20060;-66
2022/01/10 03:56:15;;;;;;;25.35;5.20;;;2.40;99.90;;;;;;5028799;28;20034;-66
2022/01/10 03:58:40;;;;;;;16.45;4.60;;;2.30;99.90;;;;;;5026455;28;20035;-66
2022/01/10 04:01:08;;;;;;;19.85;5.38;;;2.30;99.90;;;;;;5025537;28;20489;-66
2022/01/10 04:03:36;;;;;;;16.70;4.72;;;2.30;99.90;;;;;;5027139;28;20048;-66
2022/01/10 04:06:02;;;;;;;13.88;4.60;;;2.30;99.90;;;;;;5027780;28;20053;-65
2022/01/10 04:08:27;;;;;;;18.42;4.63;;;2.30;99.90;;;;;;5026577;28;20068;-66
2022/01/10 04:10:53;;;;;;;24.13;5.18;;;2.30;99.90;;;;;;5025744;28;20025;-66
2022/01/10 04:13:19;;;;;;;15.25;4.30;;;2.30;99.90;;;;;;5025916;28;20037;-66
2022/01/10 04:15:45;;;;;;;19.20;5.28;;;2.30;99.90;;;;;;5023566;28;20037;-66
2022/01/10 04:18:10;;;;;;;18.20;5.68;;;2.30;99.90;;;;;;5024435;28;20076;-66
2022/01/10 04:20:36;;;;;;;21.55;4.80;;;2.30;99.90;;;;;;5023226;28;20652;-66
2022/01/10 04:23:02;;;;;;;17.23;4.80;;;2.30;99.90;;;;;;5026660;28;20041;-66
2022/01/10 04:25:28;;;;;;;21.35;6.32;;;2.30;99.90;;;;;;5026650;28;20497;-66
2022/01/10 04:27:54;;;;;;;14.23;4.25;;;2.30;99.90;;;;;;5028073;28;20084;-66
2022/01/10 04:30:21;;;;;;;13.80;4.28;;;2.30;99.90;;;;;;5023345;28;20044;-66
2022/01/10 04:32:46;;;;;;;16.15;4.43;;;2.30;99.90;;;;;;5025712;28;20099;-66
2022/01/10 04:35:12;;;;;;;17.42;5.20;;;2.30;99.90;;;;;;5024229;28;20437;-66
2022/01/10 04:37:38;;;;;;;22.40;5.40;;;2.30;99.90;;;;;;5025038;28;20107;-65
2022/01/10 04:40:06;;;;;;;17.42;4.40;;;2.30;99.90;;;;;;5023327;28;20049;-66
2022/01/10 04:42:31;;;;;;;15.73;4.75;;;2.30;99.90;;;;;;5025547;28;20041;-66
2022/01/10 04:44:57;;;;;;;17.38;4.65;;;2.30;99.90;;;;;;5022924;28;20037;-66
2022/01/10 04:47:22;;;;;;;16.25;5.20;;;2.30;99.90;;;;;;5026492;28;20045;-66
2022/01/10 04:52:19;;;;;;;22.00;5.07;;;2.30;99.90;;;;;;5026512;28;20564;-66
2022/01/10 04:54:45;;;;;;;17.40;4.60;;;2.30;99.90;;;;;;5022963;28;20037;-65
2022/01/10 04:57:11;;;;;;;12.60;4.40;;;2.30;99.90;;;;;;5028443;28;20073;-65
2022/01/10 04:59:36;;;;;;;19.80;5.05;;;2.30;99.90;;;;;;5022460;28;20093;-66
2022/01/10 05:02:02;;;;;;;12.98;4.25;;;2.30;99.90;;;;;;5027993;28;20033;-66
2022/01/10 05:04:28;;;;;;;26.15;5.93;;;2.30;99.90;;;;;;5024450;28;21091;-66
2022/01/10 05:06:53;;;;;;;15.15;5.45;;;2.40;99.90;;;;;;5027169;28;20124;-64
2022/01/10 05:09:19;;;;;;;16.75;4.93;;;2.30;99.90;;;;;;5024053;28;20068;-66
2022/01/10 05:11:45;;;;;;;17.73;4.40;;;2.30;99.90;;;;;;5026317;28;20044;-68
2022/01/10 05:14:12;;;;;;;11.82;4.10;;;2.30;99.90;;;;;;5023126;28;20038;-68
2022/01/10 05:16:39;;;;;;;22.02;4.80;;;2.30;99.90;;;;;;5027652;28;20127;-66
2022/01/10 05:19:05;;;;;;;20.48;4.32;;;2.30;99.90;;;;;;5023322;28;20068;-66
2022/01/10 05:21:30;;;;;;;22.10;5.25;;;2.30;99.90;;;;;;5025835;28;20701;-66
2022/01/10 05:23:56;;;;;;;14.75;5.20;;;2.30;99.90;;;;;;5021796;28;20037;-66
2022/01/10 05:26:22;;;;;;;18.17;4.90;;;2.30;99.90;;;;;;5025688;28;20124;-66
2022/01/10 05:28:47;;;;;;;15.23;4.57;;;2.30;99.90;;;;;;5025773;28;20125;-66
2022/01/10 05:31:13;;;;;;;25.60;5.35;;;2.30;99.90;;;;;;5022834;28;20034;-66
2022/01/10 05:33:38;;;;;;;21.23;4.72;;;2.20;99.90;;;;;;5020662;28;20108;-66
2022/01/10 05:36:04;;;;;;;14.55;3.83;;;2.20;99.90;;;;;;5028300;28;20424;-65
2022/01/10 05:38:30;;;;;;;16.50;4.55;;;2.20;99.90;;;;;;5021250;28;20038;-65
2022/01/10 05:40:56;;;;;;;21.40;4.95;;;2.20;99.90;;;;;;5023499;28;20877;-66
2022/01/10 05:43:22;;;;;;;13.65;4.40;;;2.20;99.90;;;;;;5023759;28;20161;-65
2022/01/10 05:45:47;;;;;;;21.38;5.20;;;2.20;99.90;;;;;;5024532;28;20053;-66
2022/01/10 05:48:21;;;;;;;19.48;4.22;;;2.30;99.90;;;;;;5022892;28;20516;-65
2022/01/10 05:50:47;;;;;;;10.65;4.00;;;2.30;99.90;;;;;;5022170;28;20077;-65
2022/01/10 05:53:13;;;;;;;17.88;4.30;;;2.30;99.90;;;;;;5019825;28;20076;-65
2022/01/10 05:55:39;;;;;;;20.30;5.32;;;2.30;99.90;;;;;;5021912;28;20064;-65
2022/01/10 05:58:06;;;;;;;18.42;5.57;;;2.30;99.90;;;;;;5021762;28;20087;-67
2022/01/10 06:00:34;;;;;;;14.48;4.18;;;2.20;99.90;;;;;;5016069;28;24998;-67
2022/01/10 06:02:59;;;;;;;11.95;3.22;;;2.20;99.90;;;;;;5020104;28;20041;-65
2022/01/10 06:05:30;;;;;;;14.85;3.75;;;2.20;99.90;;;;;;5022535;28;20049;-65
2022/01/10 06:07:57;;;;;;;12.10;3.42;;;2.20;99.90;;;;;;5020805;28;20509;-65
2022/01/10 06:10:23;;;;;;;21.35;4.28;;;2.20;99.90;;;;;;5020273;28;20103;-65
2022/01/10 06:12:49;;;;;;;16.20;3.67;;;2.10;99.90;;;;;;5021378;28;20045;-65
2022/01/10 06:15:14;;;;;;;22.15;3.92;;;2.20;99.90;;;;;;5023380;28;20041;-65
2022/01/10 06:17:40;;;;;;;12.45;3.10;;;2.20;99.90;;;;;;5027905;28;20044;-65
2022/01/10 06:20:06;;;;;;;11.38;3.85;;;2.20;99.90;;;;;;5021678;28;20120;-65
2022/01/10 06:22:32;;;;;;;9.57;2.90;;;2.10;99.90;;;;;;5023840;28;20050;-66
2022/01/10 06:24:58;;;;;;;13.80;3.13;;;2.20;99.90;;;;;;5024864;28;20044;-65
2022/01/10 06:27:24;;;;;;;16.02;3.88;;;2.10;99.90;;;;;;5030939;28;20048;-65
2022/01/10 06:29:50;;;;;;;15.70;3.38;;;2.10;99.90;;;;;;5031188;28;20045;-65
2022/01/10 06:32:16;;;;;;;12.68;4.10;;;2.10;99.90;;;;;;5033310;28;20033;-65
2022/01/10 06:34:41;;;;;;;16.90;3.10;;;2.10;99.90;;;;;;5033497;28;20041;-67
2022/01/10 06:37:07;;;;;;;13.20;2.95;;;2.10;99.90;;;;;;5035665;28;20052;-64
2022/01/10 06:39:33;;;;;;;18.35;2.47;;;2.10;99.90;;;;;;5027233;28;20040;-64
2022/01/10 06:41:58;;;;;;;12.77;2.55;;;2.10;99.90;;;;;;5036018;28;20401;-64
2022/01/10 06:44:25;;;;;;;26.50;3.78;;;2.10;99.90;;;;;;5035234;28;20049;-63
2022/01/10 06:46:51;;;;;;;14.27;2.53;;;2.10;99.90;;;;;;5037193;28;20045;-65
2022/01/10 06:49:16;;;;;;;10.77;2.30;;;2.10;99.90;;;;;;5033506;28;20082;-63
2022/01/10 06:51:42;;;;;;;10.90;2.42;;;2.10;99.90;;;;;;5035595;28;20025;-64
2022/01/10 06:54:08;;;;;;;11.77;3.03;;;2.00;99.90;;;;;;5032796;28;20033;-63
2022/01/10 06:56:34;;;;;;;12.52;2.40;;;2.10;99.90;;;;;;5035307;28;20132;-63
2022/01/10 06:58:59;;;;;;;8.73;1.98;;;2.00;99.90;;;;;;5031334;28;20048;-64
2022/01/10 07:01:25;;;;;;;9.13;2.17;;;2.10;99.90;;;;;;5022678;28;20037;-63
2022/01/10 07:03:53;;;;;;;15.40;2.53;;;2.10;99.90;;;;;;5017407;28;20037;-65
2022/01/10 07:06:20;;;;;;;9.15;3.03;;;2.10;99.90;;;;;;5024674;28;20056;-64
2022/01/10 07:08:45;;;;;;;11.07;2.63;;;2.00;99.90;;;;;;5024522;28;20440;-65
2022/01/10 07:11:11;;;;;;;14.60;2.05;;;2.10;99.90;;;;;;5033167;28;20037;-65
2022/01/10 07:13:37;;;;;;;11.15;2.05;;;2.00;99.90;;;;;;5025377;28;20061;-63
2022/01/10 07:16:03;;;;;;;14.15;3.83;;;2.00;99.90;;;;;;5013396;28;20115;-64
2022/01/10 07:18:29;;;;;;;5.78;2.67;;;2.00;99.90;;;;;;5034031;28;20033;-63
2022/01/10 07:20:54;;;;;;;9.07;2.40;;;2.10;99.90;;;;;;5065937;28;20044;-67
2022/01/10 07:23:20;;;;;;;10.00;1.80;;;1.90;99.90;;;;;;5027492;28;20040;-64
2022/01/10 07:25:46;;;;;;;10.88;1.73;;;1.90;99.90;;;;;;5027184;28;20053;-64
2022/01/10 07:28:12;;;;;;;5.63;1.45;;;1.90;99.90;;;;;;5031509;28;20034;-65
2022/01/10 07:30:37;;;;;;;9.00;1.55;;;1.80;99.90;;;;;;5033184;28;20041;-65
2022/01/10 07:33:03;;;;;;;10.23;1.85;;;1.80;99.90;;;;;;5032637;28;20041;-65
2022/01/10 07:35:29;;;;;;;10.00;2.03;;;1.80;99.90;;;;;;5038143;28;20033;-65
2022/01/10 07:37:55;;;;;;;7.70;1.80;;;1.90;99.90;;;;;;5033051;28;20037;-66
2022/01/10 07:40:21;;;;;;;9.77;2.00;;;1.90;99.90;;;;;;5035111;28;20037;-65
2022/01/10 07:42:46;;;;;;;16.52;2.63;;;1.90;99.90;;;;;;5031931;28;20100;-64
2022/01/10 07:45:12;;;;;;;14.35;2.47;;;2.00;99.90;;;;;;5029349;28;20448;-64
2022/01/10 07:47:38;;;;;;;14.40;2.60;;;2.00;99.90;;;;;;5034011;28;20033;-64
2022/01/10 07:50:05;;;;;;;16.95;2.42;;;2.00;99.90;;;;;;5030469;28;20042;-64
2022/01/10 07:52:31;;;;;;;6.72;1.45;;;2.00;99.90;;;;;;5027149;28;20034;-67
2022/01/10 07:54:57;;;;;;;6.93;1.88;;;2.00;99.90;;;;;;5022529;28;20099;-66
2022/01/10 07:57:23;;;;;;;7.45;1.90;;;2.00;99.90;;;;;;5028027;28;20052;-66
2022/01/10 07:59:48;;;;;;;11.98;1.95;;;2.00;99.90;;;;;;5024144;28;20045;-67
2022/01/10 08:02:16;;;;;;;10.93;2.03;;;2.00;99.90;;;;;;5026060;28;20061;-66
2022/01/10 08:04:42;;;;;;;7.40;2.42;;;2.10;99.90;;;;;;5026622;28;20049;-67
2022/01/10 08:07:07;;;;;;;13.88;3.03;;;2.10;99.90;;;;;;5035814;28;20057;-65
2022/01/10 08:09:33;;;;;;;11.15;2.47;;;2.20;99.90;;;;;;5021698;28;20121;-67
2022/01/10 08:11:59;;;;;;;8.82;2.55;;;2.20;99.90;;;;;;5029504;28;20091;-65
2022/01/10 08:14:29;;;;;;;15.40;3.13;;;2.20;99.90;;;;;;5027852;28;20095;-65
2022/01/10 08:16:56;;;;;;;8.95;2.28;;;2.30;99.90;;;;;;5021531;28;20037;-63
2022/01/10 08:19:22;;;;;;;9.80;2.17;;;2.30;99.90;;;;;;5022959;28;20042;-62
2022/01/10 08:21:48;;;;;;;11.65;2.03;;;2.40;99.90;;;;;;5029816;28;20052;-63
2022/01/10 08:24:13;;;;;;;14.68;3.40;;;2.30;99.90;;;;;;5027020;28;20038;-61
2022/01/10 08:26:40;;;;;;;8.50;2.55;;;2.30;99.90;;;;;;5028706;28;20596;-63
2022/01/10 08:29:06;;;;;;;11.07;3.20;;;2.30;99.90;;;;;;5026919;28;20087;-63
2022/01/10 08:31:33;;;;;;;11.02;2.67;;;2.30;99.90;;;;;;5029064;28;20663;-63
2022/01/10 08:34:01;;;;;;;16.60;2.95;;;2.40;99.90;;;;;;5025738;28;20508;-63
2022/01/10 08:36:28;;;;;;;10.60;2.75;;;2.40;99.90;;;;;;5029837;28;20052;-62
2022/01/10 08:38:54;;;;;;;10.75;3.10;;;2.50;99.90;;;;;;5017447;28;20049;-63
2022/01/10 08:41:20;;;;;;;13.48;2.65;;;2.50;99.90;;;;;;5026227;28;20049;-64
2022/01/10 08:43:46;;;;;;;11.95;3.13;;;2.60;99.90;;;;;;5022035;28;20042;-63
2022/01/10 08:46:11;;;;;;;19.77;3.88;;;2.70;99.90;;;;;;5025633;28;20046;-64
2022/01/10 08:48:37;;;;;;;17.95;4.03;;;2.70;99.90;;;;;;5025515;28;20060;-64
2022/01/10 08:51:03;;;;;;;16.55;4.88;;;2.60;99.90;;;;;;5026754;28;20397;-64
2022/01/10 08:53:29;;;;;;;15.18;3.60;;;2.50;99.90;;;;;;5023072;28;20041;-64
2022/01/10 08:55:55;;;;;;;22.35;4.05;;;2.60;99.90;;;;;;5025430;28;20053;-63
2022/01/10 08:58:21;;;;;;;12.02;3.95;;;2.60;99.90;;;;;;5022590;28;20041;-63
2022/01/10 09:00:47;;;;;;;23.58;7.97;;;2.60;99.90;;;;;;5019879;28;20732;-63
2022/01/10 09:03:13;;;;;;;22.92;8.63;;;2.60;99.90;;;;;;5057836;28;20068;-63
2022/01/10 09:05:39;;;;;;;29.38;10.45;;;2.70;99.90;;;;;;5026967;28;20131;-63
2022/01/10 09:08:06;;;;;;;44.53;13.32;;;2.70;99.90;;;;;;5026912;28;20033;-63
2022/01/10 09:10:32;;;;;;;29.70;10.35;;;2.80;99.90;;;;;;5023080;28;20770;-63
2022/01/10 09:12:58;;;;;;;31.38;10.65;;;2.80;99.90;;;;;;5023927;28;20135;-63
2022/01/10 09:15:24;;;;;;;38.03;12.13;;;2.80;99.90;;;;;;5022750;28;20139;-63
2022/01/10 09:17:50;;;;;;;32.72;9.65;;;2.90;99.90;;;;;;5024378;28;20042;-64
2022/01/10 09:20:15;;;;;;;31.25;8.15;;;3.00;99.90;;;;;;5025581;28;20045;-63
2022/01/10 09:22:41;;;;;;;20.95;5.95;;;3.20;99.90;;;;;;5026810;28;20040;-63
2022/01/10 09:25:07;;;;;;;19.75;5.70;;;3.30;99.90;;;;;;5019976;28;20112;-64
2022/01/10 09:27:33;;;;;;;15.50;4.50;;;3.30;99.90;;;;;;5030267;28;20540;-64
2022/01/10 09:29:59;;;;;;;18.65;5.15;;;3.20;99.90;;;;;;5028115;28;20044;-63
2022/01/10 09:32:24;;;;;;;19.45;4.65;;;3.10;99.90;;;;;;5022432;28;20044;-62
2022/01/10 09:34:50;;;;;;;16.48;5.15;;;3.00;99.90;;;;;;5025131;28;20029;-63
2022/01/10 09:37:16;;;;;;;15.48;3.97;;;3.00;99.90;;;;;;5027922;28;20037;-64
2022/01/10 09:39:41;;;;;;;16.80;5.22;;;3.10;99.90;;;;;;5023949;28;20072;-63
2022/01/10 09:42:07;;;;;;;18.05;5.68;;;3.30;99.90;;;;;;5024596;28;20065;-63
2022/01/10 09:44:34;;;;;;;21.40;5.90;;;3.50;99.90;;;;;;5023348;28;20095;-67
2022/01/10 09:47:00;;;;;;;15.98;5.68;;;3.50;99.90;;;;;;5055764;28;20524;-63
2022/01/10 09:49:26;;;;;;;21.13;6.72;;;3.70;99.90;;;;;;5022577;28;20041;-63
2022/01/10 09:51:52;;;;;;;36.80;7.20;;;3.80;99.90;;;;;;5022403;28;20033;-64
2022/01/10 09:54:18;;;;;;;32.80;7.82;;;3.70;99.90;;;;;;5022839;28;20115;-64
2022/01/10 09:56:47;;;;;;;21.55;6.15;;;3.60;99.90;;;;;;5023468;28;20045;-63
2022/01/10 09:59:13;;;;;;;18.75;4.78;;;3.50;99.90;;;;;;5023351;28;20061;-63
2022/01/10 10:01:38;;;;;;;15.95;4.65;;;3.50;99.90;;;;;;5021775;28;20037;-63
2022/01/10 10:04:04;;;;;;;15.25;3.75;;;3.60;99.90;;;;;;5019346;28;20178;-63
2022/01/10 10:06:32;;;;;;;9.90;4.22;;;3.60;99.90;;;;;;5026628;28;20501;-64
2022/01/10 10:08:59;;;;;;;17.80;4.68;;;3.60;99.90;;;;;;5023381;28;20033;-63
2022/01/10 10:11:45;;;;;;;10.57;4.03;;;3.40;99.90;;;;;;5026503;28;20037;-63
2022/01/10 10:14:13;;;;;;;17.45;5.35;;;3.40;99.90;;;;;;5023558;28;20060;-63
2022/01/10 10:16:46;;;;;;;17.77;4.35;;;3.40;99.90;;;;;;5026403;28;20048;-64
2022/01/10 10:19:13;;;;;;;15.20;5.03;;;3.40;99.90;;;;;;5025536;28;20061;-64
2022/01/10 10:21:38;;;;;;;14.27;5.15;;;3.50;99.90;;;;;;5021586;28;20037;-63
2022/01/10 10:24:04;;;;;;;15.38;5.00;;;3.60;99.90;;;;;;5024126;28;20056;-64
2022/01/10 10:26:31;;;;;;;15.68;4.97;;;3.60;99.90;;;;;;5026575;28;20056;-63
2022/01/10 10:28:56;;;;;;;11.68;4.35;;;3.50;99.90;;;;;;5024760;28;20095;-63
2022/01/10 10:31:31;;;;;;;12.35;5.38;;;3.50;99.90;;;;;;5023314;28;20069;-63
2022/01/10 10:34:02;;;;;;;16.55;4.78;;;3.50;99.90;;;;;;5021519;28;20048;-64
2022/01/10 10:36:31;;;;;;;11.13;4.68;;;3.60;99.90;;;;;;5023448;28;20106;-64
2022/01/10 10:38:58;;;;;;;22.27;5.00;;;3.70;99.90;;;;;;5021119;28;20041;-63
2022/01/10 10:41:24;;;;;;;17.33;5.47;;;3.80;99.90;;;;;;5023612;28;20048;-64
2022/01/10 10:43:51;;;;;;;19.15;6.10;;;3.70;99.90;;;;;;5019444;28;20568;-63
2022/01/10 10:46:18;;;;;;;15.05;5.90;;;3.60;99.90;;;;;;5053015;28;20128;-63
2022/01/10 10:48:49;;;;;;;21.13;6.13;;;3.60;99.90;;;;;;5024723;28;20677;-63
2022/01/10 10:51:15;;;;;;;20.17;6.25;;;3.60;99.90;;;;;;5022798;28;20131;-63
2022/01/10 10:53:41;;;;;;;16.83;5.97;;;3.60;99.90;;;;;;5019821;28;20034;-64
2022/01/10 10:56:08;;;;;;;14.73;6.03;;;3.50;99.90;;;;;;5024044;28;20512;-64
2022/01/10 10:58:34;;;;;;;19.30;5.97;;;3.50;99.90;;;;;;5021190;28;20064;-64
2022/01/10 11:01:01;;;;;;;17.70;6.63;;;3.50;99.90;;;;;;5021839;28;20115;-63
2022/01/10 11:03:27;;;;;;;24.85;6.63;;;3.50;99.90;;;;;;5017479;28;20072;-63
2022/01/10 11:06:02;;;;;;;22.70;7.28;;;3.40;99.90;;;;;;5019557;28;20509;-64
2022/01/10 11:08:31;;;;;;;24.30;7.63;;;3.40;99.90;;;;;;5019212;28;20045;-63
2022/01/10 11:10:59;;;;;;;16.00;6.47;;;3.30;99.90;;;;;;5024553;28;20088;-63
2022/01/10 11:13:27;;;;;;;21.75;7.65;;;3.30;99.90;;;;;;5020988;28;20041;-64
2022/01/10 11:15:55;;;;;;;17.23;6.78;;;3.40;99.90;;;;;;5020446;28;20145;-64
2022/01/10 11:18:22;;;;;;;20.63;6.90;;;3.40;99.90;;;;;;5020447;28;20080;-64
2022/01/10 11:20:52;;;;;;;19.92;7.13;;;3.50;99.90;;;;;;5023422;28;20045;-64
2022/01/10 11:23:21;;;;;;;22.30;6.55;;;3.50;99.90;;;;;;5020061;28;20634;-64
2022/01/10 11:25:47;;;;;;;17.60;5.70;;;3.50;99.90;;;;;;5021238;28;20128;-63
2022/01/10 11:28:23;;;;;;;19.33;6.20;;;3.50;99.90;;;;;;5018271;28;20124;-64
2022/01/10 11:31:09;;;;;;;18.33;6.28;;;3.60;99.90;;;;;;5016869;28;20055;-64
2022/01/10 11:33:36;;;;;;;19.65;6.70;;;3.60;99.90;;;;;;5025603;28;20657;-63
2022/01/10 11:36:05;;;;;;;24.90;7.03;;;3.60;99.90;;;;;;5028305;28;20045;-63
2022/01/10 11:38:43;;;;;;;18.27;5.60;;;3.60;99.90;;;;;;5023275;28;20038;-63
2022/01/10 11:41:09;;;;;;;22.52;6.80;;;3.70;99.90;;;;;;5018997;28;20076;-63
2022/01/10 11:43:53;;;;;;;14.70;5.30;;;3.70;99.90;;;;;;5019537;28;20485;-64
2022/01/10 11:46:23;;;;;;;21.52;6.28;;;3.90;99.90;;;;;;5021479;28;20421;-64
2022/01/10 11:48:55;;;;;;;14.27;6.85;;;3.90;99.90;;;;;;5023509;28;20095;-64
2022/01/10 11:51:42;;;;;;;12.52;5.30;;;4.00;99.90;;;;;;5019241;28;20122;-63
2022/01/10 11:54:08;;;;;;;18.33;5.60;;;4.00;99.90;;;;;;5011755;28;20088;-64
2022/01/10 11:56:35;;;;;;;13.70;6.05;;;4.00;99.90;;;;;;5056108;28;20091;-64
2022/01/10 11:59:25;;;;;;;14.70;5.88;;;4.00;99.90;;;;;;5018149;28;20096;-63
2022/01/10 12:02:11;;;;;;;21.67;6.57;;;4.10;99.90;;;;;;5018650;28;20103;-63
2022/01/10 12:04:40;;;;;;;16.80;6.00;;;4.00;99.90;;;;;;5018420;28;20041;-63
2022/01/10 12:07:08;;;;;;;15.68;5.38;;;4.10;99.90;;;;;;5024647;28;20099;-64
2022/01/10 12:09:35;;;;;;;17.88;6.78;;;4.20;99.90;;;;;;5021180;28;20044;-64
2022/01/10 12:12:03;;;;;;;18.77;6.38;;;4.20;99.90;;;;;;5052639;28;20629;-63
2022/01/10 12:14:30;;;;;;;17.95;5.40;;;4.10;99.90;;;;;;5024873;28;20056;-64
2022/01/10 12:16:57;;;;;;;19.80;6.22;;;4.30;99.90;;;;;;5028591;28;20509;-64
2022/01/10 12:19:24;;;;;;;15.15;5.63;;;4.20;99.90;;;;;;5026330;28;20084;-64
2022/01/10 12:21:50;;;;;;;19.05;5.45;;;4.30;99.90;;;;;;5029051;28;20037;-64
2022/01/10 12:24:17;;;;;;;22.20;7.13;;;4.40;99.90;;;;;;5023724;28;20559;-63
2022/01/10 12:26:43;;;;;;;9.50;4.78;;;4.40;99.90;;;;;;5024741;28;20045;-64
2022/01/10 12:29:11;;;;;;;20.52;6.05;;;4.30;99.90;;;;;;5018948;28;20145;-63
2022/01/10 12:31:39;;;;;;;23.60;6.38;;;4.30;99.90;;;;;;5026313;28;20688;-64
2022/01/10 12:34:08;;;;;;;15.18;6.22;;;4.20;99.90;;;;;;5026359;28;20083;-64
2022/01/10 12:36:35;;;;;;;16.25;5.63;;;4.30;99.90;;;;;;5030048;28;20041;-64
2022/01/10 12:39:17;;;;;;;15.77;5.63;;;4.30;99.90;;;;;;5025428;28;20132;-64
2022/01/10 12:41:43;;;;;;;19.10;6.22;;;4.10;99.90;;;;;;5027766;28;20070;-64
2022/01/10 12:44:08;;;;;;;18.50;5.45;;;4.00;99.90;;;;;;5024931;28;20033;-62
2022/01/10 12:46:36;;;;;;;13.77;5.25;;;4.00;99.90;;;;;;5027552;28;20386;-66
2022/01/10 12:49:05;;;;;;;13.73;5.00;;;4.10;99.90;;;;;;5023730;28;20041;-66
2022/01/10 12:51:44;;;;;;;18.10;5.22;;;4.10;99.90;;;;;;5023129;28;20037;-63
2022/01/10 12:54:16;;;;;;;18.65;5.57;;;4.20;99.90;;;;;;5024320;28;20038;-64
2022/01/10 12:56:43;;;;;;;16.63;5.55;;;4.20;99.90;;;;;;5028725;28;20080;-62
2022/01/10 12:59:15;;;;;;;13.95;4.80;;;4.20;99.90;;;;;;5021781;28;20064;-63
2022/01/10 13:01:41;;;;;;;14.35;5.03;;;4.20;99.90;;;;;;5026268;28;20502;-66